createdAt,value
2018-08-09T00:01:29.858Z,100156.22
2018-08-09T00:03:58.918Z,100144.00
2018-08-09T00:06:27.929Z,100142.90
2018-08-09T00:08:57.060Z,100140.48
2018-08-09T00:11:26.254Z,100148.33
2018-08-09T00:13:55.255Z,100166.85
2018-08-09T00:16:24.249Z,100176.55
2018-08-09T00:18:53.305Z,100169.94
2018-08-09T00:21:22.322Z,100167.98
2018-08-09T00:23:51.386Z,100160.69
2018-08-09T00:26:20.300Z,100152.41
2018-08-09T00:28:49.294Z,100151.92
2018-08-09T00:31:18.291Z,100150.57
2018-08-09T00:33:47.279Z,100139.18
2018-08-09T00:36:16.240Z,100138.75
2018-08-09T00:38:45.222Z,100146.48
2018-08-09T00:41:14.200Z,100142.76
2018-08-09T00:43:43.244Z,100134.05
2018-08-09T00:46:12.209Z,100141.03
2018-08-09T00:48:41.288Z,100136.77
2018-08-09T00:51:11.216Z,100139.83
2018-08-09T00:53:40.359Z,100142.05
2018-08-09T00:56:09.329Z,100138.98
2018-08-09T00:58:38.281Z,100138.99
2018-08-09T01:01:07.473Z,100139.47
2018-08-09T01:03:36.539Z,100135.09
2018-08-09T01:06:05.443Z,100137.42
2018-08-09T01:08:34.550Z,100135.77
2018-08-09T01:11:03.601Z,100133.98
2018-08-09T01:13:32.601Z,100119.88
2018-08-09T01:16:01.601Z,100123.21
2018-08-09T01:18:30.850Z,100130.32
2018-08-09T01:20:59.826Z,100133.06
2018-08-09T01:23:28.821Z,100136.55
2018-08-09T01:26:00.694Z,100145.41
2018-08-09T01:28:29.730Z,100134.96
2018-08-09T01:30:58.730Z,100132.26
2018-08-09T01:33:27.822Z,100127.78
2018-08-09T01:35:56.834Z,100125.63
2018-08-09T01:38:25.967Z,100129.13
2018-08-09T01:40:54.997Z,100121.90
2018-08-09T01:43:35.055Z,100116.14
2018-08-09T01:46:04.073Z,100114.56
2018-08-09T01:48:33.193Z,100115.09
2018-08-09T01:51:02.221Z,100112.35
2018-08-09T01:53:31.323Z,100108.83
2018-08-09T01:56:00.330Z,100111.77
2018-08-09T01:58:29.335Z,100108.72
2018-08-09T02:00:58.285Z,100103.38
2018-08-09T02:03:27.309Z,100089.97
2018-08-09T02:05:56.345Z,100083.75
2018-08-09T02:08:25.474Z,100092.97
2018-08-09T02:10:54.497Z,100097.00
2018-08-09T02:13:23.579Z,100084.83
2018-08-09T02:15:52.545Z,100079.72
2018-08-09T02:18:21.634Z,100075.13
2018-08-09T02:20:50.603Z,100079.84
2018-08-09T02:23:19.760Z,100075.53
2018-08-09T02:25:48.794Z,100070.30
2018-08-09T02:28:18.104Z,100064.08
2018-08-09T02:30:47.089Z,100068.36
2018-08-09T02:33:16.402Z,100059.86
2018-08-09T02:35:45.580Z,100056.34
2018-08-09T02:38:14.686Z,100050.14
2018-08-09T02:40:43.669Z,100049.23
2018-08-09T02:43:12.817Z,100052.46
2018-08-09T02:45:41.772Z,100060.61
2018-08-09T02:48:10.786Z,100054.72
2018-08-09T02:50:39.843Z,100061.63
2018-08-09T02:53:08.872Z,100061.59
2018-08-09T02:55:37.977Z,100073.81
2018-08-09T02:58:07.090Z,100070.84
2018-08-09T03:00:36.117Z,100072.70
2018-08-09T03:03:05.057Z,100072.69
2018-08-09T03:05:34.160Z,100057.73
2018-08-09T03:08:03.159Z,100058.94
2018-08-09T03:10:32.255Z,100058.80
2018-08-09T03:13:01.182Z,100061.66
2018-08-09T03:15:30.305Z,100062.95
2018-08-09T03:17:59.313Z,100052.52
2018-08-09T03:20:28.405Z,100054.86
2018-08-09T03:22:57.364Z,100047.55
2018-08-09T03:25:26.476Z,100051.82
2018-08-09T03:27:55.462Z,100041.77
2018-08-09T03:30:24.452Z,100037.52
2018-08-09T03:32:53.649Z,100037.92
2018-08-09T03:35:22.642Z,100040.75
2018-08-09T03:37:51.626Z,100043.05
2018-08-09T03:40:20.613Z,100040.27
2018-08-09T03:42:49.574Z,100044.80
2018-08-09T03:45:18.570Z,100031.39
2018-08-09T03:47:47.537Z,100039.53
2018-08-09T03:50:16.606Z,100038.27
2018-08-09T03:52:45.564Z,100041.33
2018-08-09T03:55:14.594Z,100040.04
2018-08-09T03:57:43.562Z,100041.78
2018-08-09T04:00:12.821Z,100048.06
2018-08-09T04:02:41.858Z,100050.02
2018-08-09T04:05:11.189Z,100044.95
2018-08-09T04:07:40.762Z,100044.69
2018-08-09T04:10:10.053Z,100040.23
2018-08-09T04:12:39.175Z,100033.25
2018-08-09T04:15:09.578Z,100039.92
2018-08-09T04:17:38.636Z,100045.95
2018-08-09T04:20:07.931Z,100035.84
2018-08-09T04:22:36.947Z,100044.00
2018-08-09T04:25:06.486Z,100049.36
2018-08-09T04:27:35.462Z,100050.94
2018-08-09T04:30:05.072Z,100064.84
2018-08-09T04:32:34.094Z,100058.78
2018-08-09T04:35:03.170Z,100061.66
2018-08-09T04:37:32.310Z,100064.98
2018-08-09T04:40:01.421Z,100062.88
2018-08-09T04:42:30.544Z,100055.59
2018-08-09T04:44:59.647Z,100064.34
2018-08-09T04:47:28.646Z,100069.66
2018-08-09T04:49:57.702Z,100068.98
2018-08-09T04:52:26.673Z,100073.94
2018-08-09T04:54:55.761Z,100065.00
2018-08-09T04:57:24.832Z,100069.55
2018-08-09T04:59:53.784Z,100074.29
2018-08-09T05:02:22.841Z,100072.92
2018-08-09T05:04:52.156Z,100075.97
2018-08-09T05:07:21.174Z,100076.48
2018-08-09T05:09:50.187Z,100074.55
2018-08-09T05:12:19.202Z,100071.51
2018-08-09T05:14:48.184Z,100065.02
2018-08-09T05:17:17.253Z,100061.69
2018-08-09T05:19:46.175Z,100052.38
2018-08-09T05:22:15.227Z,100053.20
2018-08-09T05:24:44.225Z,100051.17
2018-08-09T05:27:13.254Z,100045.95
2018-08-09T05:29:42.304Z,100045.19
2018-08-09T05:32:11.825Z,100047.48
2018-08-09T05:34:41.378Z,100052.61
2018-08-09T05:37:10.447Z,100053.06
2018-08-09T05:39:39.421Z,100050.19
2018-08-09T05:42:08.430Z,100053.67
2018-08-09T05:44:37.446Z,100059.34
2018-08-09T05:47:06.414Z,100050.87
2018-08-09T05:49:35.386Z,100052.92
2018-08-09T05:52:04.477Z,100047.03
2018-08-09T05:54:33.435Z,100047.48
2018-08-09T05:57:02.462Z,100030.56
2018-08-09T05:59:31.528Z,100026.77
2018-08-09T06:02:00.564Z,100032.23
2018-08-09T06:04:29.605Z,100034.19
2018-08-09T06:06:58.641Z,100032.39
2018-08-09T06:09:27.573Z,100025.73
2018-08-09T06:11:56.930Z,100020.00
2018-08-09T06:14:27.206Z,100017.77
2018-08-09T06:16:56.201Z,100023.22
2018-08-09T06:19:31.558Z,100020.39
2018-08-09T06:22:00.700Z,100019.97
2018-08-09T06:24:29.779Z,100009.81
2018-08-09T06:26:58.863Z,99999.05
2018-08-09T06:29:27.923Z,99999.50
2018-08-09T06:31:57.350Z,100005.58
2018-08-09T06:34:26.644Z,100006.30
2018-08-09T06:36:55.753Z,99997.74
2018-08-09T06:39:25.191Z,99993.77
2018-08-09T06:41:54.432Z,99995.52
2018-08-09T06:44:23.781Z,99982.79
2018-08-09T06:46:53.562Z,99972.72
2018-08-09T06:49:22.598Z,99975.23
2018-08-09T06:51:51.669Z,99966.21
2018-08-09T06:54:20.765Z,99966.17
2018-08-09T06:56:49.908Z,99969.27
2018-08-09T06:59:18.840Z,99979.08
2018-08-09T07:01:48.651Z,99971.37
2018-08-09T07:04:17.675Z,99967.30
2018-08-09T07:06:46.836Z,99964.55
2018-08-09T07:09:15.902Z,99952.45
2018-08-09T07:11:44.930Z,99955.66
2018-08-09T07:14:13.965Z,99946.41
2018-08-09T07:16:43.271Z,99950.05
2018-08-09T07:19:12.295Z,99938.83
2018-08-09T07:21:41.318Z,99945.99
2018-08-09T07:24:10.355Z,99949.41
2018-08-09T07:26:39.487Z,99961.21
2018-08-09T07:29:08.661Z,99962.05
2018-08-09T07:31:37.693Z,99949.01
2018-08-09T07:34:06.692Z,99944.92
2018-08-09T07:36:36.971Z,99939.78
2018-08-09T07:39:08.333Z,99945.27
2018-08-09T07:41:38.250Z,99942.23
2018-08-09T07:44:07.327Z,99940.67
2018-08-09T07:46:36.384Z,99933.58
2018-08-09T07:49:05.373Z,99939.37
2018-08-09T07:51:34.397Z,99938.46
2018-08-09T07:54:03.364Z,99946.02
2018-08-09T07:56:32.423Z,99958.30
2018-08-09T07:59:01.646Z,99950.77
2018-08-09T08:01:30.645Z,99940.14
2018-08-09T08:03:59.809Z,99933.37
2018-08-09T08:06:29.222Z,99922.06
2018-08-09T08:08:58.408Z,99926.76
2018-08-09T08:11:28.794Z,99925.61
2018-08-09T08:13:57.807Z,99929.36
2018-08-09T08:16:26.819Z,99930.03
2018-08-09T08:18:55.773Z,99931.18
2018-08-09T08:21:25.055Z,99925.19
2018-08-09T08:23:54.484Z,99922.44
2018-08-09T08:26:23.530Z,99916.87
2018-08-09T08:28:52.589Z,99915.27
2018-08-09T08:31:21.756Z,99915.34
2018-08-09T08:33:50.693Z,99928.80
2018-08-09T08:36:19.858Z,99932.58
2018-08-09T08:38:49.166Z,99912.28
2018-08-09T08:41:18.267Z,99905.36
2018-08-09T08:43:47.602Z,99906.18
2018-08-09T08:46:16.780Z,99904.09
2018-08-09T08:48:46.343Z,99909.03
2018-08-09T08:51:15.369Z,99902.54
2018-08-09T08:53:45.001Z,99915.88
2018-08-09T08:56:13.948Z,99906.55
2018-08-09T08:58:42.959Z,99909.83
2018-08-09T09:01:12.048Z,99913.53
2018-08-09T09:03:41.218Z,99918.21
2018-08-09T09:06:10.492Z,99913.11
2018-08-09T09:08:40.210Z,99916.89
2018-08-09T09:11:09.175Z,99916.31
2018-08-09T09:13:41.331Z,99901.17
2018-08-09T09:16:10.418Z,99894.03
2018-08-09T09:18:39.523Z,99897.62
2018-08-09T09:21:08.769Z,99886.44
2018-08-09T09:23:38.355Z,99892.22
2018-08-09T09:26:07.461Z,99895.98
2018-08-09T09:28:36.525Z,99887.52
2018-08-09T09:31:08.998Z,99886.66
2018-08-09T09:33:38.554Z,99885.27
2018-08-09T09:36:07.960Z,99877.35
2018-08-09T09:38:38.729Z,99868.48
2018-08-09T09:41:08.040Z,99856.72
2018-08-09T09:43:37.141Z,99843.83
2018-08-09T09:46:06.147Z,99836.39
2018-08-09T09:48:35.275Z,99820.39
2018-08-09T09:51:04.477Z,99818.95
2018-08-09T09:53:33.970Z,99819.61
2018-08-09T09:56:03.098Z,99822.39
2018-08-09T09:58:32.878Z,99816.22
2018-08-09T10:01:06.934Z,99818.68
2018-08-09T10:03:36.066Z,99806.41
2018-08-09T10:06:05.213Z,99799.48
2018-08-09T10:08:34.281Z,99800.69
2018-08-09T10:11:03.466Z,99795.73
2018-08-09T10:13:32.967Z,99784.91
2018-08-09T10:16:02.012Z,99789.88
2018-08-09T10:18:31.540Z,99787.23
2018-08-09T10:21:00.743Z,99788.57
2018-08-09T10:23:30.038Z,99784.86
2018-08-09T10:25:59.078Z,99787.45
2018-08-09T10:28:28.208Z,99772.01
2018-08-09T10:30:57.160Z,99767.43
2018-08-09T10:33:26.161Z,99770.83
2018-08-09T10:35:55.221Z,99760.16
2018-08-09T10:38:24.507Z,99760.61
2018-08-09T10:40:53.492Z,99743.76
2018-08-09T10:43:22.886Z,99751.14
2018-08-09T10:45:51.923Z,99753.97
2018-08-09T10:48:20.950Z,99753.73
2018-08-09T10:50:49.900Z,99754.69
2018-08-09T10:53:19.157Z,99751.13
2018-08-09T10:55:48.766Z,99742.56
2018-08-09T10:58:17.861Z,99735.66
2018-08-09T11:00:46.817Z,99727.45
2018-08-09T11:03:15.843Z,99717.31
2018-08-09T11:05:44.797Z,99703.00
2018-08-09T11:08:14.029Z,99701.11
2018-08-09T11:10:43.026Z,99701.77
2018-08-09T11:13:12.101Z,99698.53
2018-08-09T11:15:41.153Z,99683.44
2018-08-09T11:18:10.235Z,99685.45
2018-08-09T11:20:39.477Z,99684.98
2018-08-09T11:23:08.662Z,99673.66
2018-08-09T11:25:37.758Z,99674.69
2018-08-09T11:28:06.915Z,99668.66
2018-08-09T11:30:35.979Z,99663.61
2018-08-09T11:33:10.386Z,99648.94
2018-08-09T11:35:39.486Z,99647.00
2018-08-09T11:38:08.500Z,99653.59
2018-08-09T11:40:37.495Z,99645.88
2018-08-09T11:43:06.870Z,99641.76
2018-08-09T11:45:35.868Z,99640.42
2018-08-09T11:48:04.917Z,99638.00
2018-08-09T11:50:34.012Z,99632.42
2018-08-09T11:53:03.149Z,99619.80
2018-08-09T11:55:32.533Z,99626.08
2018-08-09T11:58:01.618Z,99632.39
2018-08-09T12:00:30.649Z,99635.67
2018-08-09T12:02:59.637Z,99643.84
2018-08-09T12:05:28.629Z,99638.50
2018-08-09T12:07:57.746Z,99624.39
2018-08-09T12:10:26.745Z,99604.26
2018-08-09T12:12:55.918Z,99601.77
2018-08-09T12:15:25.069Z,99599.63
2018-08-09T12:17:54.192Z,99593.75
2018-08-09T12:20:23.203Z,99588.72
2018-08-09T12:22:53.242Z,99588.09
2018-08-09T12:25:22.536Z,99614.63
2018-08-09T12:27:51.524Z,99646.82
2018-08-09T12:30:20.588Z,99657.77
2018-08-09T12:32:49.561Z,99657.98
2018-08-09T12:35:18.662Z,99663.19
2018-08-09T12:37:47.603Z,99793.28
2018-08-09T12:40:16.643Z,99794.66
2018-08-09T12:42:45.629Z,99825.35
2018-08-09T12:45:14.718Z,99825.24
2018-08-09T12:47:44.357Z,99825.24
2018-08-09T12:50:14.465Z,99850.02
2018-08-09T12:52:44.284Z,99848.33
2018-08-09T12:55:14.423Z,99838.19
2018-08-09T12:57:43.434Z,100300.81
2018-08-09T13:00:13.942Z,99836.13
2018-08-09T13:02:43.146Z,99829.59
2018-08-09T13:05:13.204Z,99847.80
2018-08-09T13:07:42.522Z,99861.86
2018-08-09T13:10:13.025Z,99886.93
2018-08-09T13:12:42.102Z,99886.34
2018-08-09T13:15:13.439Z,99912.63
2018-08-09T13:17:43.374Z,99918.03
2018-08-09T13:20:18.343Z,99923.58
2018-08-09T13:22:48.127Z,99942.95
2018-08-09T13:25:17.134Z,99961.59
2018-08-09T13:27:46.393Z,99956.47
2018-08-09T13:30:15.469Z,99933.09
2018-08-09T13:32:45.408Z,99938.33
2018-08-09T13:35:14.529Z,99940.23
2018-08-09T13:37:43.526Z,99918.38
2018-08-09T13:40:12.561Z,99901.97
2018-08-09T13:42:42.019Z,99898.84
2018-08-09T13:45:15.317Z,99896.44
2018-08-09T13:47:44.313Z,99877.96
2018-08-09T13:50:13.824Z,99864.23
2018-08-09T13:52:43.163Z,99859.38
2018-08-09T13:55:13.491Z,99843.86
2018-08-09T13:57:42.534Z,99841.77
2018-08-09T14:00:13.022Z,99843.95
2018-08-09T14:02:43.542Z,99852.62
2018-08-09T14:05:12.592Z,99865.77
2018-08-09T14:07:43.242Z,99893.50
2018-08-09T14:10:12.905Z,99894.23
2018-08-09T14:12:42.657Z,99887.68
2018-08-09T14:15:13.165Z,99880.13
2018-08-09T14:17:42.569Z,99867.09
2018-08-09T14:20:14.241Z,99869.34
2018-08-09T14:22:43.326Z,99873.63
2018-08-09T14:25:12.734Z,99876.31
2018-08-09T14:27:41.747Z,99882.20
2018-08-09T14:30:13.007Z,99881.39
2018-08-09T14:32:42.218Z,99877.75
2018-08-09T14:35:13.673Z,99886.34
2018-08-09T14:37:43.601Z,99888.39
2018-08-09T14:40:13.059Z,99884.07
2018-08-09T14:42:42.061Z,99897.81
2018-08-09T14:45:13.182Z,99904.94
2018-08-09T14:47:42.205Z,99898.36
2018-08-09T14:50:11.274Z,99897.66
2018-08-09T14:52:40.280Z,99900.61
2018-08-09T14:55:10.847Z,99900.38
2018-08-09T14:57:40.095Z,99900.92
2018-08-09T15:00:12.024Z,99894.95
2018-08-09T15:02:40.969Z,99893.22
2018-08-09T15:05:10.049Z,99897.02
2018-08-09T15:07:39.003Z,99909.09
2018-08-09T15:10:08.190Z,99917.17
2018-08-09T15:12:37.293Z,99934.73
2018-08-09T15:15:08.416Z,99943.08
2018-08-09T15:17:37.379Z,99937.98
2018-08-09T15:20:08.214Z,99948.91
2018-08-09T15:22:37.280Z,99961.97
2018-08-09T15:25:07.154Z,99960.55
2018-08-09T15:27:36.163Z,99944.63
2018-08-09T15:30:07.066Z,99942.97
2018-08-09T15:32:36.129Z,99963.33
2018-08-09T15:35:05.214Z,99979.49
2018-08-09T15:37:34.381Z,99989.30
2018-08-09T15:40:03.543Z,99989.30
2018-08-09T15:42:32.638Z,99974.21
2018-08-09T15:45:01.678Z,99977.69
2018-08-09T15:47:30.787Z,99990.06
2018-08-09T15:49:59.670Z,99988.09
2018-08-09T15:52:28.690Z,99993.82
2018-08-09T15:54:57.706Z,99994.22
2018-08-09T15:57:26.699Z,99985.61
2018-08-09T15:59:55.806Z,99980.69
2018-08-09T16:02:24.928Z,99969.44
2018-08-09T16:04:54.046Z,99966.28
2018-08-09T16:07:23.023Z,99966.23
2018-08-09T16:09:52.043Z,99958.81
2018-08-09T16:12:21.043Z,99960.00
2018-08-09T16:14:50.067Z,99963.75
2018-08-09T16:17:19.061Z,99956.13
2018-08-09T16:19:48.064Z,99968.58
2018-08-09T16:22:17.153Z,99974.75
2018-08-09T16:24:46.205Z,99976.63
2018-08-09T16:27:15.155Z,99977.87
2018-08-09T16:29:44.182Z,99984.98
2018-08-09T16:32:13.192Z,99986.83
2018-08-09T16:34:42.238Z,99976.31
2018-08-09T16:37:11.273Z,99975.01
2018-08-09T16:39:40.228Z,99975.86
2018-08-09T16:42:09.279Z,99969.64
2018-08-09T16:44:38.285Z,99967.63
2018-08-09T16:47:07.229Z,99966.39
2018-08-09T16:49:36.159Z,99964.25
2018-08-09T16:52:05.366Z,99964.00
2018-08-09T16:54:34.338Z,99965.49
2018-08-09T16:57:03.383Z,99960.16
2018-08-09T16:59:32.302Z,99958.67
2018-08-09T17:02:01.268Z,99952.38
2018-08-09T17:04:30.175Z,99961.00
2018-08-09T17:06:59.099Z,99970.33
2018-08-09T17:09:28.100Z,99973.64
2018-08-09T17:11:57.046Z,99974.64
2018-08-09T17:14:26.038Z,99983.34
2018-08-09T17:16:55.026Z,99992.58
2018-08-09T17:19:24.010Z,99992.86
2018-08-09T17:21:53.040Z,99985.74
2018-08-09T17:24:21.960Z,99985.39
2018-08-09T17:26:50.969Z,99978.05
2018-08-09T17:29:19.996Z,99972.33
2018-08-09T17:31:48.948Z,99970.50
2018-08-09T17:34:17.865Z,99971.57
2018-08-09T17:36:46.957Z,99972.96
2018-08-09T17:39:15.921Z,99981.31
2018-08-09T17:41:44.952Z,99972.78
2018-08-09T17:44:13.925Z,99980.48
2018-08-09T17:46:43.339Z,99978.87
2018-08-09T17:49:12.232Z,99983.84
2018-08-09T17:51:41.170Z,100003.16
2018-08-09T17:54:10.145Z,99990.72
2018-08-09T17:56:39.155Z,99994.33
2018-08-09T17:59:08.111Z,99996.12
2018-08-09T18:01:37.130Z,99992.20
2018-08-09T18:04:06.120Z,99990.25
2018-08-09T18:06:35.160Z,99992.33
2018-08-09T18:09:04.423Z,100004.98
2018-08-09T18:11:33.509Z,100008.79
2018-08-09T18:14:02.544Z,100019.65
2018-08-09T18:16:31.585Z,100009.00
2018-08-09T18:19:00.594Z,100007.83
2018-08-09T18:21:29.666Z,100020.67
2018-08-09T18:23:58.739Z,100015.72
2018-08-09T18:26:27.827Z,100021.33
2018-08-09T18:28:56.818Z,100039.48
2018-08-09T18:31:25.875Z,100043.56
2018-08-09T18:33:54.972Z,100040.91
2018-08-09T18:36:24.028Z,100046.42
2018-08-09T18:38:52.994Z,100050.20
2018-08-09T18:41:22.140Z,100055.16
2018-08-09T18:43:51.318Z,100049.83
2018-08-09T18:46:20.281Z,100064.42
2018-08-09T18:48:49.302Z,100070.32
2018-08-09T18:51:18.309Z,100065.33
2018-08-09T18:53:47.250Z,100071.64
2018-08-09T18:56:16.322Z,100075.38
2018-08-09T18:58:45.284Z,100086.42
2018-08-09T19:01:14.335Z,100092.67
2018-08-09T19:03:43.343Z,100086.25
2018-08-09T19:06:12.327Z,100088.64
2018-08-09T19:08:41.414Z,100099.37
2018-08-09T19:11:10.382Z,100107.41
2018-08-09T19:13:39.414Z,100109.56
2018-08-09T19:16:08.362Z,100112.33
2018-08-09T19:18:37.344Z,100103.94
2018-08-09T19:21:06.373Z,100093.07
2018-08-09T19:23:35.354Z,100096.84
2018-08-09T19:26:04.362Z,100102.62
2018-08-09T19:28:33.400Z,100115.95
2018-08-09T19:31:02.340Z,100120.56
2018-08-09T19:33:31.350Z,100098.96
2018-08-09T19:36:00.328Z,100113.31
2018-08-09T19:38:29.413Z,100119.73
2018-08-09T19:40:58.366Z,100135.55
2018-08-09T19:43:27.343Z,100144.12
2018-08-09T19:45:56.342Z,100143.44
2018-08-09T19:48:25.382Z,100151.03
2018-08-09T19:50:54.273Z,100164.53
2018-08-09T19:53:23.309Z,100158.95
2018-08-09T19:55:52.239Z,100163.00
2018-08-09T19:58:21.229Z,100167.64
2018-08-09T20:00:50.232Z,100164.83
2018-08-09T20:03:19.320Z,100175.76
2018-08-09T20:05:48.313Z,100176.06
2018-08-09T20:08:17.369Z,100175.83
2018-08-09T20:10:46.329Z,100170.62
2018-08-09T20:13:15.395Z,100171.82
2018-08-09T20:15:44.488Z,100188.29
2018-08-09T20:18:13.498Z,100194.00
2018-08-09T20:20:42.455Z,100198.78
2018-08-09T20:23:11.426Z,100211.68
2018-08-09T20:25:40.449Z,100215.94
2018-08-09T20:28:09.685Z,100217.43
2018-08-09T20:30:38.751Z,100213.91
2018-08-09T20:33:07.893Z,100219.28
2018-08-09T20:35:36.946Z,100225.12
2018-08-09T20:38:05.972Z,100231.48
2018-08-09T20:40:35.018Z,100220.00
2018-08-09T20:43:04.005Z,100239.84
2018-08-09T20:45:32.955Z,100235.45
2018-08-09T20:48:01.985Z,100235.56
2018-08-09T20:50:31.046Z,100243.38
2018-08-09T20:53:00.069Z,100236.08
2018-08-09T20:55:29.049Z,100236.80
2018-08-09T20:57:58.465Z,100240.67
2018-08-09T21:00:29.152Z,100238.06
2018-08-09T21:02:59.206Z,100243.79
2018-08-09T21:05:32.758Z,100237.39
2018-08-09T21:08:01.846Z,100233.44
2018-08-09T21:10:31.297Z,100227.09
2018-08-09T21:13:00.313Z,100222.18
2018-08-09T21:15:30.329Z,100222.15
2018-08-09T21:17:59.405Z,100233.37
2018-08-09T21:20:28.363Z,100235.12
2018-08-09T21:22:57.443Z,100240.55
2018-08-09T21:25:26.461Z,100248.59
2018-08-09T21:27:55.485Z,100252.73
2018-08-09T21:30:25.115Z,100262.75
2018-08-09T21:32:54.263Z,100269.31
2018-08-09T21:35:23.234Z,100262.56
2018-08-09T21:37:52.178Z,100264.98
2018-08-09T21:40:21.201Z,100274.53
2018-08-09T21:42:50.205Z,100277.14
2018-08-09T21:45:20.177Z,100272.48
2018-08-09T21:47:49.227Z,100289.44
2018-08-09T21:50:20.404Z,100291.31
2018-08-09T21:52:49.625Z,100283.67
2018-08-09T21:55:18.621Z,100276.20
2018-08-09T21:57:48.340Z,100285.41
2018-08-09T22:00:57.710Z,100294.05
2018-08-09T22:03:28.926Z,100306.00
2018-08-09T22:06:02.913Z,100302.66
2018-08-09T22:08:36.956Z,100317.27
2018-08-09T22:11:11.361Z,100334.92
2018-08-09T22:13:45.374Z,100346.88
2018-08-09T22:16:19.459Z,100346.59
2018-08-09T22:18:53.487Z,100360.02
2018-08-09T22:21:27.625Z,100367.62
2018-08-09T22:23:56.777Z,100381.70
2018-08-09T22:26:25.729Z,100379.37
2018-08-09T22:28:54.727Z,100393.42
2018-08-09T22:31:23.798Z,100411.00
2018-08-09T22:33:52.923Z,100407.08
2018-08-09T22:36:22.023Z,100412.12
2018-08-09T22:38:51.131Z,100412.90
2018-08-09T22:41:20.134Z,100420.67
2018-08-09T22:43:49.194Z,100433.17
2018-08-09T22:46:18.174Z,100435.38
2018-08-09T22:48:47.213Z,100439.11
2018-08-09T22:51:16.173Z,100444.34
2018-08-09T22:53:45.166Z,100454.56
2018-08-09T22:56:14.134Z,100453.21
2018-08-09T22:58:43.162Z,100467.97
2018-08-09T23:01:12.202Z,100468.70
2018-08-09T23:03:41.327Z,100475.67
2018-08-09T23:06:10.457Z,100489.60
2018-08-09T23:08:39.462Z,100494.69
2018-08-09T23:11:08.628Z,100501.06
2018-08-09T23:13:37.641Z,100511.13
2018-08-09T23:16:06.926Z,100516.42
2018-08-09T23:18:35.933Z,100520.34
2018-08-09T23:21:05.017Z,100541.67
2018-08-09T23:23:34.069Z,100538.37
2018-08-09T23:26:02.999Z,100547.08
2018-08-09T23:28:32.129Z,100536.33
2018-08-09T23:31:01.105Z,100533.05
2018-08-09T23:33:30.025Z,100544.89
2018-08-09T23:35:58.997Z,100550.56
2018-08-09T23:38:27.952Z,100550.56
2018-08-09T23:40:56.909Z,100554.53
2018-08-09T23:43:25.878Z,100551.37
2018-08-09T23:45:54.909Z,100553.02
2018-08-09T23:48:23.842Z,100555.72
2018-08-09T23:50:52.973Z,100552.17
2018-08-09T23:53:21.935Z,100563.21
2018-08-09T23:55:51.009Z,100558.46
2018-08-09T23:58:19.921Z,100561.78
